sensor_id;sensor_type;location;lat;lon;timestamp;P1;durP1;ratioP1;P2;durP2;ratioP2
51036;SDS011;37064;59.346;18.058;2023-09-18T00:00:17;2.72;;;0.98;;
51036;SDS011;37064;59.346;18.058;2023-09-18T00:02:43;4.55;;;0.75;;
51036;SDS011;37064;59.346;18.058;2023-09-18T00:05:09;2.38;;;1.00;;
51036;SDS011;37064;59.346;18.058;2023-09-18T00:07:35;1.63;;;0.80;;
51036;SDS011;37064;59.346;18.058;2023-09-18T00:10:01;2.83;;;0.63;;
51036;SDS011;37064;59.346;18.058;2023-09-18T00:12:27;2.30;;;0.50;;
51036;SDS011;37064;59.346;18.058;2023-09-18T00:14:53;2.88;;;0.90;;
51036;SDS011;37064;59.346;18.058;2023-09-18T00:17:19;2.35;;;0.80;;
51036;SDS011;37064;59.346;18.058;2023-09-18T00:19:46;3.33;;;0.90;;
51036;SDS011;37064;59.346;18.058;2023-09-18T00:22:12;3.47;;;0.80;;
51036;SDS011;37064;59.346;18.058;2023-09-18T00:24:38;2.28;;;0.77;;
51036;SDS011;37064;59.346;18.058;2023-09-18T00:27:04;3.55;;;1.25;;
51036;SDS011;37064;59.346;18.058;2023-09-18T00:29:30;2.03;;;0.47;;
51036;SDS011;37064;59.346;18.058;2023-09-18T00:31:56;1.38;;;0.50;;
51036;SDS011;37064;59.346;18.058;2023-09-18T00:34:22;1.30;;;0.60;;
51036;SDS011;37064;59.346;18.058;2023-09-18T00:36:48;3.03;;;0.60;;
51036;SDS011;37064;59.346;18.058;2023-09-18T00:39:14;1.42;;;0.55;;
51036;SDS011;37064;59.346;18.058;2023-09-18T00:41:40;1.25;;;0.47;;
51036;SDS011;37064;59.346;18.058;2023-09-18T00:44:07;1.05;;;0.40;;
51036;SDS011;37064;59.346;18.058;2023-09-18T00:46:33;1.30;;;0.80;;
51036;SDS011;37064;59.346;18.058;2023-09-18T00:49:01;2.03;;;0.88;;
51036;SDS011;37064;59.346;18.058;2023-09-18T00:51:28;1.05;;;0.63;;
51036;SDS011;37064;59.346;18.058;2023-09-18T00:53:54;1.45;;;0.60;;
51036;SDS011;37064;59.346;18.058;2023-09-18T00:56:20;2.40;;;0.88;;
51036;SDS011;37064;59.346;18.058;2023-09-18T00:58:46;2.53;;;0.60;;
51036;SDS011;37064;59.346;18.058;2023-09-18T01:01:12;3.05;;;0.60;;
51036;SDS011;37064;59.346;18.058;2023-09-18T01:03:41;3.80;;;0.80;;
51036;SDS011;37064;59.346;18.058;2023-09-18T01:06:07;1.15;;;0.70;;
51036;SDS011;37064;59.346;18.058;2023-09-18T01:08:33;1.63;;;0.60;;
51036;SDS011;37064;59.346;18.058;2023-09-18T01:13:50;2.78;;;0.50;;
51036;SDS011;37064;59.346;18.058;2023-09-18T01:16:20;2.47;;;0.60;;
51036;SDS011;37064;59.346;18.058;2023-09-18T01:18:49;2.17;;;0.60;;
51036;SDS011;37064;59.346;18.058;2023-09-18T01:21:15;0.93;;;0.52;;
51036;SDS011;37064;59.346;18.058;2023-09-18T01:23:41;1.52;;;0.60;;
51036;SDS011;37064;59.346;18.058;2023-09-18T01:26:07;2.88;;;0.40;;
51036;SDS011;37064;59.346;18.058;2023-09-18T01:28:33;2.97;;;0.50;;
51036;SDS011;37064;59.346;18.058;2023-09-18T01:30:59;0.90;;;0.60;;
51036;SDS011;37064;59.346;18.058;2023-09-18T01:33:26;0.95;;;0.50;;
51036;SDS011;37064;59.346;18.058;2023-09-18T01:35:53;2.65;;;0.65;;
51036;SDS011;37064;59.346;18.058;2023-09-18T01:38:20;2.03;;;0.57;;
51036;SDS011;37064;59.346;18.058;2023-09-18T01:40:47;1.92;;;1.00;;
51036;SDS011;37064;59.346;18.058;2023-09-18T01:43:13;2.70;;;0.63;;
51036;SDS011;37064;59.346;18.058;2023-09-18T01:45:39;1.08;;;0.50;;
51036;SDS011;37064;59.346;18.058;2023-09-18T01:48:05;1.83;;;0.65;;
51036;SDS011;37064;59.346;18.058;2023-09-18T01:50:31;5.47;;;0.85;;
51036;SDS011;37064;59.346;18.058;2023-09-18T01:53:00;1.30;;;0.40;;
51036;SDS011;37064;59.346;18.058;2023-09-18T01:57:54;1.25;;;0.50;;
51036;SDS011;37064;59.346;18.058;2023-09-18T02:00:20;0.75;;;0.45;;
51036;SDS011;37064;59.346;18.058;2023-09-18T02:02:46;3.03;;;0.70;;
51036;SDS011;37064;59.346;18.058;2023-09-18T02:05:12;3.65;;;0.70;;
51036;SDS011;37064;59.346;18.058;2023-09-18T02:07:38;1.48;;;0.60;;
51036;SDS011;37064;59.346;18.058;2023-09-18T02:10:04;4.47;;;0.90;;
51036;SDS011;37064;59.346;18.058;2023-09-18T02:12:31;1.38;;;0.70;;
51036;SDS011;37064;59.346;18.058;2023-09-18T02:14:57;0.70;;;0.40;;
51036;SDS011;37064;59.346;18.058;2023-09-18T02:17:29;2.35;;;0.70;;
51036;SDS011;37064;59.346;18.058;2023-09-18T02:19:55;2.65;;;0.60;;
51036;SDS011;37064;59.346;18.058;2023-09-18T02:22:21;0.93;;;0.60;;
51036;SDS011;37064;59.346;18.058;2023-09-18T02:24:47;2.13;;;0.70;;
51036;SDS011;37064;59.346;18.058;2023-09-18T02:27:13;2.10;;;0.60;;
51036;SDS011;37064;59.346;18.058;2023-09-18T02:29:39;2.15;;;0.73;;
51036;SDS011;37064;59.346;18.058;2023-09-18T02:32:05;1.85;;;0.55;;
51036;SDS011;37064;59.346;18.058;2023-09-18T02:34:31;3.85;;;0.98;;
51036;SDS011;37064;59.346;18.058;2023-09-18T02:36:58;0.88;;;0.50;;
51036;SDS011;37064;59.346;18.058;2023-09-18T02:39:24;3.25;;;0.77;;
51036;SDS011;37064;59.346;18.058;2023-09-18T02:41:50;2.88;;;0.55;;
51036;SDS011;37064;59.346;18.058;2023-09-18T02:44:16;0.82;;;0.45;;
51036;SDS011;37064;59.346;18.058;2023-09-18T02:46:42;1.40;;;0.70;;
51036;SDS011;37064;59.346;18.058;2023-09-18T02:49:08;2.75;;;0.40;;
51036;SDS011;37064;59.346;18.058;2023-09-18T02:51:34;2.17;;;0.60;;
51036;SDS011;37064;59.346;18.058;2023-09-18T02:54:00;2.28;;;0.82;;
51036;SDS011;37064;59.346;18.058;2023-09-18T02:56:27;2.08;;;0.60;;
51036;SDS011;37064;59.346;18.058;2023-09-18T02:58:53;4.75;;;0.88;;
51036;SDS011;37064;59.346;18.058;2023-09-18T03:01:19;4.68;;;0.70;;
51036;SDS011;37064;59.346;18.058;2023-09-18T03:03:45;1.13;;;0.50;;
51036;SDS011;37064;59.346;18.058;2023-09-18T03:06:11;1.85;;;0.60;;
51036;SDS011;37064;59.346;18.058;2023-09-18T03:08:38;1.95;;;0.60;;
51036;SDS011;37064;59.346;18.058;2023-09-18T03:11:10;1.40;;;0.70;;
51036;SDS011;37064;59.346;18.058;2023-09-18T03:13:36;2.17;;;0.90;;
51036;SDS011;37064;59.346;18.058;2023-09-18T03:16:02;2.38;;;0.50;;
51036;SDS011;37064;59.346;18.058;2023-09-18T03:18:28;1.63;;;0.80;;
51036;SDS011;37064;59.346;18.058;2023-09-18T03:20:54;2.03;;;0.55;;
51036;SDS011;37064;59.346;18.058;2023-09-18T03:23:20;1.40;;;0.80;;
51036;SDS011;37064;59.346;18.058;2023-09-18T03:25:46;1.50;;;0.80;;
51036;SDS011;37064;59.346;18.058;2023-09-18T03:28:12;1.77;;;0.60;;
51036;SDS011;37064;59.346;18.058;2023-09-18T03:30:38;1.80;;;0.95;;
51036;SDS011;37064;59.346;18.058;2023-09-18T03:33:04;1.55;;;0.70;;
51036;SDS011;37064;59.346;18.058;2023-09-18T03:35:31;3.60;;;0.80;;
51036;SDS011;37064;59.346;18.058;2023-09-18T03:37:57;3.38;;;0.80;;
51036;SDS011;37064;59.346;18.058;2023-09-18T03:40:23;2.30;;;0.50;;
51036;SDS011;37064;59.346;18.058;2023-09-18T03:42:49;2.97;;;0.60;;
51036;SDS011;37064;59.346;18.058;2023-09-18T03:45:15;1.65;;;0.50;;
51036;SDS011;37064;59.346;18.058;2023-09-18T03:47:43;0.40;;;0.30;;
51036;SDS011;37064;59.346;18.058;2023-09-18T03:50:10;4.47;;;0.63;;
51036;SDS011;37064;59.346;18.058;2023-09-18T03:52:38;2.47;;;0.60;;
51036;SDS011;37064;59.346;18.058;2023-09-18T03:55:05;1.30;;;0.80;;
51036;SDS011;37064;59.346;18.058;2023-09-18T03:57:31;1.10;;;0.40;;
51036;SDS011;37064;59.346;18.058;2023-09-18T03:59:57;1.00;;;0.60;;
51036;SDS011;37064;59.346;18.058;2023-09-18T04:02:24;1.00;;;0.50;;
51036;SDS011;37064;59.346;18.058;2023-09-18T04:04:50;3.30;;;0.43;;
51036;SDS011;37064;59.346;18.058;2023-09-18T04:07:16;1.35;;;0.75;;
51036;SDS011;37064;59.346;18.058;2023-09-18T04:09:44;3.47;;;0.50;;
51036;SDS011;37064;59.346;18.058;2023-09-18T04:12:10;1.90;;;0.57;;
51036;SDS011;37064;59.346;18.058;2023-09-18T04:14:36;1.65;;;0.47;;
51036;SDS011;37064;59.346;18.058;2023-09-18T04:17:02;2.88;;;0.52;;
51036;SDS011;37064;59.346;18.058;2023-09-18T04:19:28;1.73;;;0.73;;
51036;SDS011;37064;59.346;18.058;2023-09-18T04:21:55;3.30;;;0.85;;
51036;SDS011;37064;59.346;18.058;2023-09-18T04:24:21;2.67;;;0.93;;
51036;SDS011;37064;59.346;18.058;2023-09-18T04:26:48;1.90;;;0.60;;
51036;SDS011;37064;59.346;18.058;2023-09-18T04:29:15;2.63;;;0.50;;
51036;SDS011;37064;59.346;18.058;2023-09-18T04:31:41;3.13;;;0.60;;
51036;SDS011;37064;59.346;18.058;2023-09-18T04:34:07;2.00;;;0.60;;
51036;SDS011;37064;59.346;18.058;2023-09-18T04:36:33;2.15;;;0.68;;
51036;SDS011;37064;59.346;18.058;2023-09-18T04:39:01;4.38;;;1.00;;
51036;SDS011;37064;59.346;18.058;2023-09-18T04:41:29;0.90;;;0.47;;
51036;SDS011;37064;59.346;18.058;2023-09-18T04:43:55;1.58;;;0.60;;
51036;SDS011;37064;59.346;18.058;2023-09-18T04:46:21;0.88;;;0.50;;
51036;SDS011;37064;59.346;18.058;2023-09-18T04:48:48;0.98;;;0.60;;
51036;SDS011;37064;59.346;18.058;2023-09-18T04:51:14;3.95;;;0.60;;
51036;SDS011;37064;59.346;18.058;2023-09-18T04:53:41;1.52;;;0.50;;
51036;SDS011;37064;59.346;18.058;2023-09-18T04:56:07;1.77;;;0.50;;
51036;SDS011;37064;59.346;18.058;2023-09-18T04:58:35;2.28;;;0.40;;
51036;SDS011;37064;59.346;18.058;2023-09-18T05:01:02;2.15;;;0.60;;
51036;SDS011;37064;59.346;18.058;2023-09-18T05:03:30;3.38;;;0.60;;
51036;SDS011;37064;59.346;18.058;2023-09-18T05:05:56;5.53;;;0.55;;
51036;SDS011;37064;59.346;18.058;2023-09-18T05:08:22;1.98;;;0.60;;
51036;SDS011;37064;59.346;18.058;2023-09-18T05:10:48;2.92;;;0.85;;
51036;SDS011;37064;59.346;18.058;2023-09-18T05:13:15;3.50;;;0.70;;
51036;SDS011;37064;59.346;18.058;2023-09-18T05:15:41;3.47;;;1.15;;
51036;SDS011;37064;59.346;18.058;2023-09-18T05:18:07;2.88;;;0.70;;
51036;SDS011;37064;59.346;18.058;2023-09-18T05:20:34;3.67;;;0.95;;
51036;SDS011;37064;59.346;18.058;2023-09-18T05:23:00;2.60;;;0.85;;
51036;SDS011;37064;59.346;18.058;2023-09-18T05:25:29;2.72;;;1.00;;
51036;SDS011;37064;59.346;18.058;2023-09-18T05:27:58;1.55;;;0.60;;
51036;SDS011;37064;59.346;18.058;2023-09-18T05:30:25;1.85;;;0.60;;
51036;SDS011;37064;59.346;18.058;2023-09-18T05:32:57;1.58;;;0.70;;
51036;SDS011;37064;59.346;18.058;2023-09-18T05:35:29;2.35;;;0.70;;
51036;SDS011;37064;59.346;18.058;2023-09-18T05:37:55;5.93;;;1.15;;
51036;SDS011;37064;59.346;18.058;2023-09-18T05:40:23;2.55;;;0.63;;
51036;SDS011;37064;59.346;18.058;2023-09-18T05:42:51;2.15;;;1.00;;
51036;SDS011;37064;59.346;18.058;2023-09-18T05:45:17;2.28;;;0.93;;
51036;SDS011;37064;59.346;18.058;2023-09-18T05:47:43;2.78;;;0.85;;
51036;SDS011;37064;59.346;18.058;2023-09-18T05:50:10;4.60;;;0.90;;
51036;SDS011;37064;59.346;18.058;2023-09-18T05:52:40;1.90;;;0.90;;
51036;SDS011;37064;59.346;18.058;2023-09-18T05:55:06;2.55;;;0.90;;
51036;SDS011;37064;59.346;18.058;2023-09-18T05:57:32;3.25;;;0.75;;
51036;SDS011;37064;59.346;18.058;2023-09-18T05:59:58;1.75;;;0.70;;
51036;SDS011;37064;59.346;18.058;2023-09-18T06:02:24;1.83;;;0.73;;
51036;SDS011;37064;59.346;18.058;2023-09-18T06:04:57;1.58;;;0.60;;
51036;SDS011;37064;59.346;18.058;2023-09-18T06:07:25;1.17;;;0.77;;
51036;SDS011;37064;59.346;18.058;2023-09-18T06:09:50;3.35;;;0.80;;
51036;SDS011;37064;59.346;18.058;2023-09-18T06:12:17;1.55;;;0.82;;
51036;SDS011;37064;59.346;18.058;2023-09-18T06:14:43;2.33;;;0.65;;
51036;SDS011;37064;59.346;18.058;2023-09-18T06:17:10;4.55;;;0.88;;
51036;SDS011;37064;59.346;18.058;2023-09-18T06:19:36;4.10;;;0.82;;
51036;SDS011;37064;59.346;18.058;2023-09-18T06:22:02;2.88;;;1.08;;
51036;SDS011;37064;59.346;18.058;2023-09-18T06:24:28;6.20;;;0.63;;
51036;SDS011;37064;59.346;18.058;2023-09-18T06:26:54;1.25;;;0.47;;
51036;SDS011;37064;59.346;18.058;2023-09-18T06:29:20;4.55;;;1.15;;
51036;SDS011;37064;59.346;18.058;2023-09-18T06:31:46;3.33;;;0.60;;
51036;SDS011;37064;59.346;18.058;2023-09-18T06:34:12;2.60;;;0.75;;
51036;SDS011;37064;59.346;18.058;2023-09-18T06:36:38;4.00;;;0.65;;
51036;SDS011;37064;59.346;18.058;2023-09-18T06:39:05;4.38;;;0.65;;
51036;SDS011;37064;59.346;18.058;2023-09-18T06:41:31;4.53;;;0.68;;
51036;SDS011;37064;59.346;18.058;2023-09-18T06:43:57;3.78;;;0.57;;
51036;SDS011;37064;59.346;18.058;2023-09-18T06:46:23;2.45;;;0.65;;
51036;SDS011;37064;59.346;18.058;2023-09-18T06:48:49;2.47;;;0.50;;
51036;SDS011;37064;59.346;18.058;2023-09-18T06:51:16;3.60;;;0.80;;
51036;SDS011;37064;59.346;18.058;2023-09-18T06:53:43;2.75;;;0.50;;
51036;SDS011;37064;59.346;18.058;2023-09-18T06:56:09;1.52;;;0.70;;
51036;SDS011;37064;59.346;18.058;2023-09-18T06:58:37;3.97;;;0.80;;
51036;SDS011;37064;59.346;18.058;2023-09-18T07:01:03;3.63;;;0.63;;
51036;SDS011;37064;59.346;18.058;2023-09-18T07:03:32;4.60;;;0.95;;
51036;SDS011;37064;59.346;18.058;2023-09-18T07:05:59;1.45;;;0.60;;
51036;SDS011;37064;59.346;18.058;2023-09-18T07:08:26;5.05;;;1.30;;
51036;SDS011;37064;59.346;18.058;2023-09-18T07:10:52;1.67;;;0.55;;
51036;SDS011;37064;59.346;18.058;2023-09-18T07:13:18;1.45;;;0.50;;
51036;SDS011;37064;59.346;18.058;2023-09-18T07:15:44;1.70;;;0.60;;
51036;SDS011;37064;59.346;18.058;2023-09-18T07:18:10;2.38;;;0.50;;
51036;SDS011;37064;59.346;18.058;2023-09-18T07:20:39;3.70;;;0.57;;
51036;SDS011;37064;59.346;18.058;2023-09-18T07:23:05;1.55;;;0.40;;
51036;SDS011;37064;59.346;18.058;2023-09-18T07:25:31;3.10;;;0.50;;
51036;SDS011;37064;59.346;18.058;2023-09-18T07:27:57;2.33;;;0.70;;
51036;SDS011;37064;59.346;18.058;2023-09-18T07:30:23;3.38;;;0.73;;
51036;SDS011;37064;59.346;18.058;2023-09-18T07:32:52;2.93;;;0.57;;
51036;SDS011;37064;59.346;18.058;2023-09-18T07:35:18;4.07;;;0.65;;
51036;SDS011;37064;59.346;18.058;2023-09-18T07:37:44;1.88;;;0.60;;
51036;SDS011;37064;59.346;18.058;2023-09-18T07:40:11;1.75;;;0.85;;
51036;SDS011;37064;59.346;18.058;2023-09-18T07:42:37;1.77;;;0.50;;
51036;SDS011;37064;59.346;18.058;2023-09-18T07:45:03;1.80;;;0.43;;
51036;SDS011;37064;59.346;18.058;2023-09-18T07:47:29;2.83;;;0.50;;
51036;SDS011;37064;59.346;18.058;2023-09-18T07:49:56;1.35;;;0.50;;
51036;SDS011;37064;59.346;18.058;2023-09-18T07:52:22;3.08;;;0.93;;
51036;SDS011;37064;59.346;18.058;2023-09-18T07:54:48;2.78;;;0.60;;
51036;SDS011;37064;59.346;18.058;2023-09-18T07:57:15;19.52;;;7.60;;
51036;SDS011;37064;59.346;18.058;2023-09-18T07:59:41;61.70;;;31.80;;
51036;SDS011;37064;59.346;18.058;2023-09-18T08:02:07;25.85;;;15.73;;
51036;SDS011;37064;59.346;18.058;2023-09-18T08:04:34;13.98;;;7.18;;
51036;SDS011;37064;59.346;18.058;2023-09-18T08:07:00;3.67;;;1.90;;
51036;SDS011;37064;59.346;18.058;2023-09-18T08:09:26;3.30;;;2.58;;
51036;SDS011;37064;59.346;18.058;2023-09-18T08:11:55;1.20;;;0.80;;
51036;SDS011;37064;59.346;18.058;2023-09-18T08:14:22;4.20;;;2.75;;
51036;SDS011;37064;59.346;18.058;2023-09-18T08:16:48;3.70;;;1.55;;
51036;SDS011;37064;59.346;18.058;2023-09-18T08:19:17;1.90;;;0.88;;
51036;SDS011;37064;59.346;18.058;2023-09-18T08:21:44;1.88;;;0.82;;
51036;SDS011;37064;59.346;18.058;2023-09-18T08:24:11;1.30;;;0.60;;
51036;SDS011;37064;59.346;18.058;2023-09-18T08:26:37;0.90;;;0.50;;
51036;SDS011;37064;59.346;18.058;2023-09-18T08:29:03;2.22;;;0.65;;
51036;SDS011;37064;59.346;18.058;2023-09-18T08:31:30;3.03;;;0.70;;
51036;SDS011;37064;59.346;18.058;2023-09-18T08:33:57;1.42;;;0.40;;
51036;SDS011;37064;59.346;18.058;2023-09-18T08:36:23;1.10;;;0.40;;
51036;SDS011;37064;59.346;18.058;2023-09-18T08:38:49;1.35;;;0.70;;
51036;SDS011;37064;59.346;18.058;2023-09-18T08:41:16;1.30;;;0.65;;
51036;SDS011;37064;59.346;18.058;2023-09-18T08:46:10;1.60;;;0.85;;
51036;SDS011;37064;59.346;18.058;2023-09-18T08:48:36;2.28;;;1.60;;
51036;SDS011;37064;59.346;18.058;2023-09-18T08:51:02;1.25;;;0.70;;
51036;SDS011;37064;59.346;18.058;2023-09-18T08:53:33;1.48;;;0.50;;
51036;SDS011;37064;59.346;18.058;2023-09-18T08:56:00;3.67;;;0.98;;
51036;SDS011;37064;59.346;18.058;2023-09-18T09:00:55;1.33;;;0.60;;
51036;SDS011;37064;59.346;18.058;2023-09-18T09:03:22;3.15;;;0.90;;
51036;SDS011;37064;59.346;18.058;2023-09-18T09:05:48;2.05;;;0.43;;
51036;SDS011;37064;59.346;18.058;2023-09-18T09:08:15;1.35;;;0.77;;
51036;SDS011;37064;59.346;18.058;2023-09-18T09:10:41;3.47;;;0.98;;
51036;SDS011;37064;59.346;18.058;2023-09-18T09:13:07;1.52;;;0.35;;
51036;SDS011;37064;59.346;18.058;2023-09-18T09:15:55;2.38;;;0.75;;
51036;SDS011;37064;59.346;18.058;2023-09-18T09:18:21;3.25;;;0.50;;
51036;SDS011;37064;59.346;18.058;2023-09-18T09:23:22;1.50;;;0.43;;
51036;SDS011;37064;59.346;18.058;2023-09-18T09:25:48;2.08;;;0.50;;
51036;SDS011;37064;59.346;18.058;2023-09-18T09:28:14;0.70;;;0.60;;
51036;SDS011;37064;59.346;18.058;2023-09-18T09:30:41;1.25;;;0.55;;
51036;SDS011;37064;59.346;18.058;2023-09-18T09:33:10;2.45;;;0.70;;
51036;SDS011;37064;59.346;18.058;2023-09-18T09:35:37;2.40;;;0.73;;
51036;SDS011;37064;59.346;18.058;2023-09-18T09:38:08;1.70;;;0.85;;
51036;SDS011;37064;59.346;18.058;2023-09-18T09:40:34;2.45;;;0.45;;
51036;SDS011;37064;59.346;18.058;2023-09-18T09:43:02;1.52;;;0.50;;
51036;SDS011;37064;59.346;18.058;2023-09-18T09:45:30;1.50;;;0.60;;
51036;SDS011;37064;59.346;18.058;2023-09-18T09:48:00;1.15;;;0.52;;
51036;SDS011;37064;59.346;18.058;2023-09-18T09:50:26;1.13;;;0.45;;
51036;SDS011;37064;59.346;18.058;2023-09-18T09:52:54;2.47;;;0.63;;
51036;SDS011;37064;59.346;18.058;2023-09-18T09:57:46;2.35;;;0.50;;
51036;SDS011;37064;59.346;18.058;2023-09-18T10:00:13;1.23;;;0.50;;
51036;SDS011;37064;59.346;18.058;2023-09-18T10:05:18;1.95;;;0.82;;
51036;SDS011;37064;59.346;18.058;2023-09-18T10:07:44;2.95;;;0.65;;
51036;SDS011;37064;59.346;18.058;2023-09-18T10:10:11;1.25;;;0.60;;
51036;SDS011;37064;59.346;18.058;2023-09-18T10:12:37;1.80;;;0.90;;
51036;SDS011;37064;59.346;18.058;2023-09-18T10:15:04;1.35;;;0.88;;
51036;SDS011;37064;59.346;18.058;2023-09-18T10:17:34;2.53;;;1.08;;
51036;SDS011;37064;59.346;18.058;2023-09-18T10:22:41;7.55;;;2.53;;
51036;SDS011;37064;59.346;18.058;2023-09-18T10:25:14;2.70;;;1.20;;
51036;SDS011;37064;59.346;18.058;2023-09-18T10:27:43;2.45;;;0.90;;
51036;SDS011;37064;59.346;18.058;2023-09-18T10:30:10;2.88;;;0.90;;
51036;SDS011;37064;59.346;18.058;2023-09-18T10:32:38;2.58;;;0.80;;
51036;SDS011;37064;59.346;18.058;2023-09-18T10:35:08;3.13;;;0.80;;
51036;SDS011;37064;59.346;18.058;2023-09-18T10:37:34;2.25;;;0.75;;
51036;SDS011;37064;59.346;18.058;2023-09-18T10:40:01;1.35;;;0.70;;
51036;SDS011;37064;59.346;18.058;2023-09-18T10:42:29;3.70;;;1.05;;
51036;SDS011;37064;59.346;18.058;2023-09-18T10:44:58;1.67;;;0.40;;
51036;SDS011;37064;59.346;18.058;2023-09-18T10:47:24;8.25;;;0.77;;
51036;SDS011;37064;59.346;18.058;2023-09-18T10:49:50;2.83;;;0.50;;
51036;SDS011;37064;59.346;18.058;2023-09-18T10:52:16;4.05;;;0.50;;
51036;SDS011;37064;59.346;18.058;2023-09-18T10:54:42;3.30;;;0.43;;
51036;SDS011;37064;59.346;18.058;2023-09-18T10:57:10;1.77;;;0.45;;
51036;SDS011;37064;59.346;18.058;2023-09-18T10:59:46;4.15;;;0.47;;
51036;SDS011;37064;59.346;18.058;2023-09-18T11:02:15;2.88;;;0.50;;
51036;SDS011;37064;59.346;18.058;2023-09-18T11:04:43;3.50;;;1.42;;
51036;SDS011;37064;59.346;18.058;2023-09-18T11:07:19;7.68;;;0.80;;
51036;SDS011;37064;59.346;18.058;2023-09-18T11:09:45;1.45;;;0.65;;
51036;SDS011;37064;59.346;18.058;2023-09-18T11:12:11;3.28;;;0.70;;
51036;SDS011;37064;59.346;18.058;2023-09-18T11:22:34;1.57;;;0.57;;
51036;SDS011;37064;59.346;18.058;2023-09-18T11:27:52;3.38;;;2.67;;
51036;SDS011;37064;59.346;18.058;2023-09-18T11:30:21;3.45;;;1.20;;
51036;SDS011;37064;59.346;18.058;2023-09-18T11:32:49;3.42;;;0.95;;
51036;SDS011;37064;59.346;18.058;2023-09-18T11:35:15;1.95;;;0.50;;
51036;SDS011;37064;59.346;18.058;2023-09-18T11:37:44;8.27;;;0.60;;
51036;SDS011;37064;59.346;18.058;2023-09-18T11:40:29;5.15;;;0.80;;
51036;SDS011;37064;59.346;18.058;2023-09-18T11:45:44;3.10;;;0.50;;
51036;SDS011;37064;59.346;18.058;2023-09-18T11:48:12;4.33;;;0.93;;
51036;SDS011;37064;59.346;18.058;2023-09-18T11:50:40;1.15;;;0.50;;
51036;SDS011;37064;59.346;18.058;2023-09-18T11:53:07;1.27;;;0.50;;
51036;SDS011;37064;59.346;18.058;2023-09-18T11:55:33;2.15;;;0.50;;
51036;SDS011;37064;59.346;18.058;2023-09-18T11:57:59;1.67;;;0.40;;
51036;SDS011;37064;59.346;18.058;2023-09-18T12:00:26;3.55;;;0.63;;
51036;SDS011;37064;59.346;18.058;2023-09-18T12:02:55;1.40;;;0.98;;
51036;SDS011;37064;59.346;18.058;2023-09-18T12:05:23;2.85;;;1.00;;
51036;SDS011;37064;59.346;18.058;2023-09-18T12:07:51;1.98;;;0.60;;
51036;SDS011;37064;59.346;18.058;2023-09-18T12:10:19;0.75;;;0.30;;
51036;SDS011;37064;59.346;18.058;2023-09-18T12:12:47;4.15;;;0.47;;
51036;SDS011;37064;59.346;18.058;2023-09-18T12:15:14;2.83;;;1.35;;
51036;SDS011;37064;59.346;18.058;2023-09-18T12:17:40;1.85;;;0.70;;
51036;SDS011;37064;59.346;18.058;2023-09-18T12:20:06;1.20;;;0.63;;
51036;SDS011;37064;59.346;18.058;2023-09-18T12:22:32;1.33;;;0.50;;
51036;SDS011;37064;59.346;18.058;2023-09-18T12:27:28;1.90;;;0.50;;
51036;SDS011;37064;59.346;18.058;2023-09-18T12:29:55;1.38;;;0.95;;
51036;SDS011;37064;59.346;18.058;2023-09-18T12:32:21;2.42;;;0.43;;
51036;SDS011;37064;59.346;18.058;2023-09-18T12:34:47;1.88;;;0.65;;
51036;SDS011;37064;59.346;18.058;2023-09-18T12:37:13;2.85;;;0.70;;
51036;SDS011;37064;59.346;18.058;2023-09-18T12:39:39;1.17;;;0.77;;
51036;SDS011;37064;59.346;18.058;2023-09-18T12:42:06;0.98;;;0.65;;
51036;SDS011;37064;59.346;18.058;2023-09-18T12:44:32;1.42;;;0.50;;
51036;SDS011;37064;59.346;18.058;2023-09-18T12:46:58;1.58;;;0.35;;
51036;SDS011;37064;59.346;18.058;2023-09-18T12:49:24;1.55;;;0.47;;
51036;SDS011;37064;59.346;18.058;2023-09-18T12:51:57;3.92;;;0.90;;
51036;SDS011;37064;59.346;18.058;2023-09-18T12:57:25;1.13;;;0.40;;
51036;SDS011;37064;59.346;18.058;2023-09-18T12:59:51;2.55;;;0.70;;
51036;SDS011;37064;59.346;18.058;2023-09-18T13:02:19;2.95;;;0.85;;
51036;SDS011;37064;59.346;18.058;2023-09-18T13:04:55;1.92;;;0.30;;
51036;SDS011;37064;59.346;18.058;2023-09-18T13:07:21;2.17;;;0.52;;
51036;SDS011;37064;59.346;18.058;2023-09-18T13:10:00;4.03;;;0.70;;
51036;SDS011;37064;59.346;18.058;2023-09-18T13:12:39;4.03;;;1.40;;
51036;SDS011;37064;59.346;18.058;2023-09-18T13:15:05;6.63;;;1.10;;
51036;SDS011;37064;59.346;18.058;2023-09-18T13:17:38;2.88;;;1.10;;
51036;SDS011;37064;59.346;18.058;2023-09-18T13:20:17;1.52;;;0.40;;
51036;SDS011;37064;59.346;18.058;2023-09-18T13:22:48;1.45;;;0.40;;
51036;SDS011;37064;59.346;18.058;2023-09-18T13:27:40;1.55;;;0.40;;
51036;SDS011;37064;59.346;18.058;2023-09-18T13:30:08;3.47;;;0.73;;
51036;SDS011;37064;59.346;18.058;2023-09-18T13:32:35;2.13;;;0.70;;
51036;SDS011;37064;59.346;18.058;2023-09-18T13:35:02;1.95;;;0.77;;
51036;SDS011;37064;59.346;18.058;2023-09-18T13:37:30;2.08;;;0.55;;
51036;SDS011;37064;59.346;18.058;2023-09-18T13:39:56;1.75;;;0.65;;
51036;SDS011;37064;59.346;18.058;2023-09-18T13:42:22;4.25;;;0.73;;
51036;SDS011;37064;59.346;18.058;2023-09-18T13:44:48;1.17;;;0.30;;
51036;SDS011;37064;59.346;18.058;2023-09-18T13:47:15;1.70;;;0.50;;
51036;SDS011;37064;59.346;18.058;2023-09-18T13:49:41;3.05;;;0.80;;
51036;SDS011;37064;59.346;18.058;2023-09-18T13:52:07;1.08;;;0.30;;
51036;SDS011;37064;59.346;18.058;2023-09-18T13:54:33;3.63;;;0.40;;
51036;SDS011;37064;59.346;18.058;2023-09-18T13:56:59;4.55;;;0.47;;
51036;SDS011;37064;59.346;18.058;2023-09-18T13:59:24;1.27;;;0.50;;
51036;SDS011;37064;59.346;18.058;2023-09-18T14:01:50;2.38;;;0.50;;
51036;SDS011;37064;59.346;18.058;2023-09-18T14:04:17;3.08;;;0.60;;
51036;SDS011;37064;59.346;18.058;2023-09-18T14:06:44;3.72;;;0.52;;
51036;SDS011;37064;59.346;18.058;2023-09-18T14:09:10;1.67;;;0.75;;
51036;SDS011;37064;59.346;18.058;2023-09-18T14:11:36;4.25;;;0.80;;
51036;SDS011;37064;59.346;18.058;2023-09-18T14:14:03;2.92;;;1.30;;
51036;SDS011;37064;59.346;18.058;2023-09-18T14:16:29;3.15;;;0.88;;
51036;SDS011;37064;59.346;18.058;2023-09-18T14:18:58;3.50;;;0.77;;
51036;SDS011;37064;59.346;18.058;2023-09-18T14:21:24;1.60;;;0.73;;
51036;SDS011;37064;59.346;18.058;2023-09-18T14:23:55;5.15;;;0.80;;
51036;SDS011;37064;59.346;18.058;2023-09-18T14:26:21;1.98;;;0.40;;
51036;SDS011;37064;59.346;18.058;2023-09-18T14:28:47;2.40;;;0.63;;
51036;SDS011;37064;59.346;18.058;2023-09-18T14:31:13;2.35;;;0.65;;
51036;SDS011;37064;59.346;18.058;2023-09-18T14:33:40;1.45;;;0.50;;
51036;SDS011;37064;59.346;18.058;2023-09-18T14:36:06;3.70;;;0.57;;
51036;SDS011;37064;59.346;18.058;2023-09-18T14:38:32;1.10;;;0.60;;
51036;SDS011;37064;59.346;18.058;2023-09-18T14:40:58;3.55;;;0.73;;
51036;SDS011;37064;59.346;18.058;2023-09-18T14:43:27;1.00;;;0.40;;
51036;SDS011;37064;59.346;18.058;2023-09-18T14:45:53;2.75;;;0.52;;
51036;SDS011;37064;59.346;18.058;2023-09-18T14:48:22;3.57;;;0.60;;
51036;SDS011;37064;59.346;18.058;2023-09-18T14:50:54;4.35;;;0.55;;
51036;SDS011;37064;59.346;18.058;2023-09-18T14:53:20;0.98;;;0.65;;
51036;SDS011;37064;59.346;18.058;2023-09-18T14:55:46;1.60;;;0.63;;
51036;SDS011;37064;59.346;18.058;2023-09-18T14:58:12;5.05;;;2.25;;
51036;SDS011;37064;59.346;18.058;2023-09-18T15:00:39;4.45;;;3.17;;
51036;SDS011;37064;59.346;18.058;2023-09-18T15:03:05;4.57;;;0.90;;
51036;SDS011;37064;59.346;18.058;2023-09-18T15:05:31;2.15;;;0.73;;
51036;SDS011;37064;59.346;18.058;2023-09-18T15:07:57;3.53;;;0.70;;
51036;SDS011;37064;59.346;18.058;2023-09-18T15:10:23;2.92;;;0.75;;
51036;SDS011;37064;59.346;18.058;2023-09-18T15:12:49;2.03;;;0.85;;